Terminal Aerodrome Forecast
Issued by NWS

Home | Current Version | Previous Version | Text Only | Print | Product List | Glossary On
Versions: 1 2 3 4 5 6 7 8 9 10 11 12 13 14 15 16 17 18 19 20 21 22 23 24 25 26 27 28 29 30 31 32
000
FTUS41 KBUF 270900 AAB
TAFJHW
TAF AMD
KJHW 270945Z 2710/2806 26007KT P6SM VCSH OVC006
     FM271300 28005KT P6SM BKN012
     FM271700 31008KT P6SM BKN025
     FM271900 31009KT P6SM SCT050 SCT100
     FM280300 32008KT P6SM SCT250
      AMD LTD TO CLD VIS AND WIND=

USA.gov is the U.S. government's official web portal to all federal, state and local government web resources and services.